Big Horn — NBIG — position and weather

sailwx.info

Track history (hours):
 
Tides and Currents Weather Stations Pressure Air Temp Water Temp Dewpoint Dewpoint Depression Visibility Wind Speed Wind Dir Waves Ship Positions

Big Horn

Last reported at 2018-Apr-09 15:01 UTC. Time now 2018-Jul-21 09:33 UTC.
Position N 35°34' E 024°33'.
Warning: this ship's position is months out of date.

Length 206 m.

Type: Military. MMSI: 368889000.

Date/timePositionNaut miles runAvg speedWind from/ knotsBaromVisibWave heightAir tempDewpointWater temp
2018-Apr-09 15:01N 35°34' E 024°33'017.7
2018-Apr-09 14:59N 35°34' E 024°33'917.5
2018-Apr-09 14:29N 35°32' E 024°22'9 1.0
2018-Apr-09 05:43N 35°29' E 024°12'2 6.4
2018-Apr-09 05:22N 35°30' E 024°14'2 6.3
2018-Apr-09 05:00N 35°31' E 024°17'3 6.2
2018-Apr-09 04:28N 35°32' E 024°21'3 5.5
2018-Apr-09 04:00N 35°33' E 024°23'3 6.7
2018-Apr-09 03:30N 35°37' E 024°23'97 9.9
2018-Apr-08 17:42N 37°09' E 023°46'212.5
2018-Apr-08 17:30N 37°11' E 023°46'812.4
2018-Apr-08 16:51N 37°20' E 023°46'612.3
2018-Apr-08 16:21N 37°26' E 023°46'712.3
2018-Apr-08 15:48N 37°32' E 023°43'412.2
2018-Apr-08 15:30N 37°36' E 023°42'612.1
2018-Apr-08 15:01N 37°42' E 023°41'714.4
2018-Apr-08 14:30N 37°48' E 023°37'713.7
2018-Apr-08 14:00N 37°55' E 023°37'1 2.6
2018-Apr-08 13:31N 37°56' E 023°37'0 0.0
2018-Apr-08 12:59N 37°56' E 023°37'0 0.0
2018-Apr-08 12:29N 37°56' E 023°37'0 0.0
2018-Apr-08 11:59N 37°56' E 023°37'0 0.0
2018-Apr-08 11:29N 37°56' E 023°37'0 0.0
2018-Apr-08 10:59N 37°56' E 023°37'0 0.0
2018-Apr-08 10:29N 37°56' E 023°37'0 0.0
2018-Apr-08 09:59N 37°56' E 023°37'0 0.0
2018-Apr-08 09:29N 37°56' E 023°37'0 0.0
2018-Apr-08 08:59N 37°56' E 023°37'0 0.0
2018-Apr-08 08:29N 37°56' E 023°37'0 0.0
2018-Apr-08 07:59N 37°56' E 023°37'0 0.0
2018-Apr-08 07:29N 37°56' E 023°37'0 0.0
2018-Apr-08 06:59N 37°56' E 023°37'0 0.0
2018-Apr-08 06:29N 37°56' E 023°37'0 0.0
2018-Apr-08 05:59N 37°56' E 023°37'0 0.0
2018-Apr-08 05:29N 37°56' E 023°37'0 0.0
2018-Apr-08 04:59N 37°56' E 023°37'0 0.0
2018-Apr-08 04:29N 37°56' E 023°37'0 0.0
2018-Apr-08 03:59N 37°56' E 023°37'0 0.0
2018-Apr-08 03:29N 37°56' E 023°37'0 0.0
2018-Apr-08 02:59N 37°56' E 023°37'0 0.0
2018-Apr-08 02:29N 37°56' E 023°37'0 0.0
2018-Apr-08 01:59N 37°56' E 023°37'0 0.0
2018-Apr-08 01:29N 37°56' E 023°37'0 0.0
2018-Apr-08 00:59N 37°56' E 023°37'0 0.0
2018-Apr-08 00:29N 37°56' E 023°37'0 0.0
2018-Apr-07 23:59N 37°56' E 023°37'0 0.0
2018-Apr-07 23:29N 37°56' E 023°37'0 0.0
2018-Apr-07 22:59N 37°56' E 023°37'0 0.0
2018-Apr-07 22:29N 37°56' E 023°37'0 0.0
2018-Apr-07 21:59N 37°56' E 023°37'0 0.0
2018-Apr-07 21:29N 37°56' E 023°37'0 0.0
2018-Apr-07 20:59N 37°56' E 023°37'0 0.0
2018-Apr-07 20:29N 37°56' E 023°37'0 0.0
2018-Apr-07 19:59N 37°56' E 023°37'0 0.0
2018-Apr-07 19:29N 37°56' E 023°37'0 0.0
2018-Apr-07 18:59N 37°56' E 023°37'0 0.0
2018-Apr-07 18:29N 37°56' E 023°37'0 0.0
2018-Apr-07 17:59N 37°56' E 023°37'0 0.0
2018-Apr-07 17:29N 37°56' E 023°37'0 0.0
2018-Apr-07 16:59N 37°56' E 023°37'0 0.0
2018-Apr-07 16:29N 37°56' E 023°37'0 0.0
2018-Apr-07 15:59N 37°56' E 023°37'0 0.0
2018-Apr-07 15:29N 37°56' E 023°37'0 0.0
2018-Apr-07 14:59N 37°56' E 023°37'0 0.0
2018-Apr-07 14:29N 37°56' E 023°37'0 0.0
2018-Apr-07 13:59N 37°56' E 023°37'0 0.0
2018-Apr-07 13:29N 37°56' E 023°37'0 0.0
2018-Apr-07 12:59N 37°56' E 023°37'0 0.0
2018-Apr-07 12:29N 37°56' E 023°37'0 0.0
2018-Apr-07 11:59N 37°56' E 023°37'0 0.0
2018-Apr-07 11:29N 37°56' E 023°37'0 0.0
2018-Apr-07 10:59N 37°56' E 023°37'0 0.0
2018-Apr-07 10:29N 37°56' E 023°37'0 0.0
2018-Apr-07 09:59N 37°56' E 023°37'0 0.0
2018-Apr-07 09:29N 37°56' E 023°37'0 0.0
2018-Apr-07 08:59N 37°56' E 023°37'0 0.0
2018-Apr-07 08:29N 37°56' E 023°37'0 0.0
2018-Apr-07 07:59N 37°56' E 023°37'0 0.0
2018-Apr-07 07:29N 37°56' E 023°37'0 0.0
2018-Apr-07 06:59N 37°56' E 023°37'0 0.0
2018-Apr-07 06:29N 37°56' E 023°37'0 0.0
2018-Apr-07 05:59N 37°56' E 023°37'0 0.0
2018-Apr-07 05:29N 37°56' E 023°37'0 0.0
2018-Apr-07 04:59N 37°56' E 023°37'0 0.0
2018-Apr-07 04:29N 37°56' E 023°37'0 0.0
2018-Apr-07 03:59N 37°56' E 023°37'0 0.0
2018-Apr-07 03:29N 37°56' E 023°37'0 0.0
2018-Apr-07 02:59N 37°56' E 023°37'0 0.0
2018-Apr-07 02:29N 37°56' E 023°37'0 0.0
2018-Apr-07 01:59N 37°56' E 023°37'0 0.0
2018-Apr-07 01:29N 37°56' E 023°37'0 0.0
2018-Apr-07 00:59N 37°56' E 023°37'0 0.0
2018-Apr-07 00:29N 37°56' E 023°37'0 0.0
2018-Apr-06 23:59N 37°56' E 023°37'0 0.0
2018-Apr-06 23:29N 37°56' E 023°37'0 0.0
2018-Apr-06 22:59N 37°56' E 023°37'0 0.0
2018-Apr-06 22:29N 37°56' E 023°37'0 0.0
2018-Apr-06 21:59N 37°56' E 023°37'0 0.0
2018-Apr-06 21:29N 37°56' E 023°37'0 0.0
2018-Apr-06 20:59N 37°56' E 023°37'0 0.0
2018-Apr-06 20:29N 37°56' E 023°37'0 0.0
2018-Apr-06 19:59N 37°56' E 023°37'0 0.0
2018-Apr-06 19:29N 37°56' E 023°37'0 0.0
2018-Apr-06 18:59N 37°56' E 023°37'0 0.0
2018-Apr-06 18:29N 37°56' E 023°37'0 0.0
2018-Apr-06 17:59N 37°56' E 023°37'0 0.0
2018-Apr-06 17:29N 37°56' E 023°37'0 0.0
2018-Apr-06 16:59N 37°56' E 023°37'0 0.0
2018-Apr-06 16:29N 37°56' E 023°37'0 0.0
2018-Apr-06 15:59N 37°56' E 023°37'0 0.0
2018-Apr-06 15:29N 37°56' E 023°37'0 0.0
2018-Apr-06 14:59N 37°56' E 023°37'0 0.0
2018-Apr-06 14:29N 37°56' E 023°37'0 0.0
2018-Apr-06 13:59N 37°56' E 023°37'0 0.0
2018-Apr-06 13:29N 37°56' E 023°37'0 0.0
2018-Apr-06 12:59N 37°56' E 023°37'0 0.0
2018-Apr-06 12:29N 37°56' E 023°37'0 0.0
2018-Apr-06 11:59N 37°56' E 023°37'0 0.0
2018-Apr-06 11:29N 37°56' E 023°37'0 0.0
2018-Apr-06 10:59N 37°56' E 023°37'0 0.0
2018-Apr-06 10:29N 37°56' E 023°37'0 0.0
2018-Apr-06 09:59N 37°56' E 023°37'0 0.0
2018-Apr-06 09:29N 37°56' E 023°37'0 0.0
2018-Apr-06 08:59N 37°56' E 023°37'0 0.0
2018-Apr-06 08:29N 37°56' E 023°37'0 0.0
2018-Apr-06 07:59N 37°56' E 023°37'0 0.0
2018-Apr-06 07:29N 37°56' E 023°37'0 0.0
2018-Apr-06 06:59N 37°56' E 023°37'0 0.0
2018-Apr-06 06:29N 37°56' E 023°37'0 0.0
2018-Apr-06 05:59N 37°56' E 023°37'0 0.0
2018-Apr-06 05:29N 37°56' E 023°37'0 0.0
2018-Apr-06 04:59N 37°56' E 023°37'0 0.0
2018-Apr-06 04:29N 37°56' E 023°37'0 0.0
2018-Apr-06 03:59N 37°56' E 023°37'0 0.0
2018-Apr-06 03:29N 37°56' E 023°37'0 0.0
2018-Apr-06 02:59N 37°56' E 023°37'0 0.0
2018-Apr-06 02:29N 37°56' E 023°37'0 0.0
2018-Apr-06 01:59N 37°56' E 023°37'0 0.0
2018-Apr-06 01:29N 37°56' E 023°37'0 0.0
2018-Apr-06 00:59N 37°56' E 023°37'0 0.0
2018-Apr-06 00:29N 37°56' E 023°37'0 0.0
2018-Apr-05 23:59N 37°56' E 023°37'0 0.0
2018-Apr-05 23:29N 37°56' E 023°37'0 0.0
2018-Apr-05 22:59N 37°56' E 023°37'0 0.0
2018-Apr-05 22:29N 37°56' E 023°37'0 0.0
2018-Apr-05 21:59N 37°56' E 023°37'0 0.0
2018-Apr-05 21:29N 37°56' E 023°37'0 0.0
2018-Apr-05 20:59N 37°56' E 023°37'0 0.0
2018-Apr-05 20:29N 37°56' E 023°37'0 0.0
2018-Apr-05 19:59N 37°56' E 023°37'0 0.0
2018-Apr-05 19:29N 37°56' E 023°37'0 0.0
2018-Apr-05 18:59N 37°56' E 023°37'0 0.0
2018-Apr-05 18:29N 37°56' E 023°37'0 0.0
2018-Apr-05 17:59N 37°56' E 023°37'0 0.0
2018-Apr-05 17:29N 37°56' E 023°37'0 0.0
2018-Apr-05 16:59N 37°56' E 023°37'0 0.0
2018-Apr-05 16:29N 37°56' E 023°37'0 0.0
2018-Apr-05 15:59N 37°56' E 023°37'0 0.0
2018-Apr-05 15:29N 37°56' E 023°37'0 0.0
2018-Apr-05 14:59N 37°56' E 023°37'0 0.0
2018-Apr-05 14:29N 37°56' E 023°37'0 0.0
2018-Apr-05 13:59N 37°56' E 023°37'0 0.0
2018-Apr-05 13:29N 37°56' E 023°37'0 0.0
2018-Apr-05 12:59N 37°56' E 023°37'0 0.0
2018-Apr-05 12:29N 37°56' E 023°37'0 0.0
2018-Apr-05 11:59N 37°56' E 023°37'0 0.0
2018-Apr-05 11:29N 37°56' E 023°37'0 0.0
2018-Apr-05 10:59N 37°56' E 023°37'0 0.0
2018-Apr-05 10:29N 37°56' E 023°37'0 0.0
2018-Apr-05 09:56N 37°56' E 023°37'0 0.0
2018-Apr-05 09:29N 37°56' E 023°37'0 0.0
2018-Apr-05 08:59N 37°56' E 023°37'0 0.0
2018-Apr-05 08:29N 37°56' E 023°37'0 0.0
2018-Apr-05 07:59N 37°56' E 023°37'0 0.0
2018-Apr-05 07:29N 37°56' E 023°37'0 0.0
2018-Apr-05 06:59N 37°56' E 023°37'0 0.0
2018-Apr-05 06:29N 37°56' E 023°37'0 0.0
2018-Apr-05 05:59N 37°56' E 023°37'0 0.0
2018-Apr-05 05:29N 37°56' E 023°37'0 0.0
2018-Apr-05 04:59N 37°56' E 023°37'0 0.0
2018-Apr-05 04:26N 37°56' E 023°37'0 0.0
2018-Apr-05 03:59N 37°56' E 023°37'0 0.0
2018-Apr-05 03:29N 37°56' E 023°37'0 0.0
2018-Apr-05 02:59N 37°56' E 023°37'0 0.0
2018-Apr-05 02:29N 37°56' E 023°37'0 0.0
2018-Apr-05 01:59N 37°56' E 023°37'0 0.0
2018-Apr-05 01:29N 37°56' E 023°37'0 0.0
2018-Apr-05 00:59N 37°56' E 023°37'0 0.0
2018-Apr-05 00:29N 37°56' E 023°37'0 0.0
2018-Apr-04 23:59N 37°56' E 023°37'0 0.0
2018-Apr-04 23:29N 37°56' E 023°37'0 0.0
2018-Apr-04 22:59N 37°56' E 023°37'0 0.0
2018-Apr-04 22:29N 37°56' E 023°37'0 0.0
2018-Apr-04 21:59N 37°56' E 023°37'0 0.0
2018-Apr-04 21:29N 37°56' E 023°37'0 0.0
2018-Apr-04 20:59N 37°56' E 023°37'0 0.0
2018-Apr-04 20:29N 37°56' E 023°37'0 0.0
2018-Apr-04 19:59N 37°56' E 023°37'0 0.0
2018-Apr-04 19:29N 37°56' E 023°37'0 0.0
2018-Apr-04 18:59N 37°56' E 023°37'0 0.0
2018-Apr-04 18:29N 37°56' E 023°37'0 0.0
2018-Apr-04 17:59N 37°56' E 023°37'0 0.0
2018-Apr-04 17:29N 37°56' E 023°37'0 0.0
2018-Apr-04 16:59N 37°56' E 023°37'0 0.0
2018-Apr-04 16:29N 37°56' E 023°37'0 0.0
2018-Apr-04 15:59N 37°56' E 023°37'0 0.0
2018-Apr-04 15:29N 37°56' E 023°37'0 0.0
2018-Apr-04 14:59N 37°56' E 023°37'0 0.0
2018-Apr-04 14:29N 37°56' E 023°37'0 0.0
2018-Apr-04 13:59N 37°56' E 023°37'0 0.0
2018-Apr-04 13:29N 37°56' E 023°37'0 0.0
2018-Apr-04 12:59N 37°56' E 023°37'0 0.0
2018-Apr-04 12:29N 37°56' E 023°37'0 0.0
2018-Apr-04 11:59N 37°56' E 023°37'0 0.0
2018-Apr-04 11:29N 37°56' E 023°37'0 0.0
2018-Apr-04 10:59N 37°56' E 023°37'0 0.0
2018-Apr-04 10:29N 37°56' E 023°37'0 0.0
2018-Apr-04 09:59N 37°56' E 023°37'0 0.0
2018-Apr-04 09:29N 37°56' E 023°37'0 0.0
2018-Apr-04 08:59N 37°56' E 023°37'0 0.0
2018-Apr-04 08:29N 37°56' E 023°37'0 0.0
2018-Apr-04 07:59N 37°56' E 023°37'0 0.0
2018-Apr-04 07:29N 37°56' E 023°37'0 0.0
2018-Apr-04 06:59N 37°56' E 023°37'0 0.0
2018-Apr-04 06:29N 37°56' E 023°37'0 0.0
2018-Apr-04 06:00N 37°56' E 023°37'0 0.9
2018-Apr-04 05:30N 37°56' E 023°37'2 3.6
2018-Apr-04 05:00N 37°54' E 023°37'4 7.1
2018-Apr-04 04:30N 37°51' E 023°39'611.7
2018-Apr-04 04:00N 37°46' E 023°42'611.3
2018-Apr-04 03:30N 37°41' E 023°45'611.6
2018-Apr-04 03:00N 37°35' E 023°46'713.6
2018-Apr-04 02:30N 37°28' E 023°46'917.8
2018-Apr-04 02:00N 37°19' E 023°46'917.7
2018-Apr-04 01:30N 37°10' E 023°45'816.7
2018-Apr-04 01:00N 37°02' E 023°46'917.8
2018-Apr-04 00:30N 36°53' E 023°46'917.8
2018-Apr-04 00:00N 36°44' E 023°45'917.7
2018-Apr-03 23:30N 36°36' E 023°42'917.7
2018-Apr-03 23:00N 36°27' E 023°41'3417.9
2018-Apr-03 21:08N 35°54' E 023°32'217.9
2018-Apr-03 21:00N 35°52' E 023°31'  
2018-Mar-30 21:18N 36°00' W 005°10'619.8
2018-Mar-30 21:00N 35°59' W 005°17'1020.0
2018-Mar-30 20:30N 35°56' W 005°29'  
Track history (hours):
 
Tides and Currents Weather Stations Pressure Air Temp Water Temp Dewpoint Dewpoint Depression Visibility Wind Speed Wind Dir Waves Ship Positions

Big Horn

Last reported at 2018-Apr-09 15:01 UTC. Time now 2018-Jul-21 09:33 UTC.
Position N 35°34' E 024°33'.
Warning: this ship's position is months out of date.

Length 206 m.

Type: Military. MMSI: 368889000.

Date/timePositionNaut miles runAvg speedWind from/ knotsBaromVisibWave heightAir tempDewpointWater temp
2018-Apr-09 15:01N 35°34' E 024°33'017.7
2018-Apr-09 14:59N 35°34' E 024°33'917.5
2018-Apr-09 14:29N 35°32' E 024°22'9 1.0
2018-Apr-09 05:43N 35°29' E 024°12'2 6.4
2018-Apr-09 05:22N 35°30' E 024°14'2 6.3
2018-Apr-09 05:00N 35°31' E 024°17'3 6.2
2018-Apr-09 04:28N 35°32' E 024°21'3 5.5
2018-Apr-09 04:00N 35°33' E 024°23'3 6.7
2018-Apr-09 03:30N 35°37' E 024°23'97 9.9
2018-Apr-08 17:42N 37°09' E 023°46'212.5
2018-Apr-08 17:30N 37°11' E 023°46'812.4
2018-Apr-08 16:51N 37°20' E 023°46'612.3
2018-Apr-08 16:21N 37°26' E 023°46'712.3
2018-Apr-08 15:48N 37°32' E 023°43'412.2
2018-Apr-08 15:30N 37°36' E 023°42'612.1
2018-Apr-08 15:01N 37°42' E 023°41'714.4
2018-Apr-08 14:30N 37°48' E 023°37'713.7
2018-Apr-08 14:00N 37°55' E 023°37'1 2.6
2018-Apr-08 13:31N 37°56' E 023°37'0 0.0
2018-Apr-08 12:59N 37°56' E 023°37'0 0.0
2018-Apr-08 12:29N 37°56' E 023°37'0 0.0
2018-Apr-08 11:59N 37°56' E 023°37'0 0.0
2018-Apr-08 11:29N 37°56' E 023°37'0 0.0
2018-Apr-08 10:59N 37°56' E 023°37'0 0.0
2018-Apr-08 10:29N 37°56' E 023°37'0 0.0
2018-Apr-08 09:59N 37°56' E 023°37'0 0.0
2018-Apr-08 09:29N 37°56' E 023°37'0 0.0
2018-Apr-08 08:59N 37°56' E 023°37'0 0.0
2018-Apr-08 08:29N 37°56' E 023°37'0 0.0
2018-Apr-08 07:59N 37°56' E 023°37'0 0.0
2018-Apr-08 07:29N 37°56' E 023°37'0 0.0
2018-Apr-08 06:59N 37°56' E 023°37'0 0.0
2018-Apr-08 06:29N 37°56' E 023°37'0 0.0
2018-Apr-08 05:59N 37°56' E 023°37'0 0.0
2018-Apr-08 05:29N 37°56' E 023°37'0 0.0
2018-Apr-08 04:59N 37°56' E 023°37'0 0.0
2018-Apr-08 04:29N 37°56' E 023°37'0 0.0
2018-Apr-08 03:59N 37°56' E 023°37'0 0.0
2018-Apr-08 03:29N 37°56' E 023°37'0 0.0
2018-Apr-08 02:59N 37°56' E 023°37'0 0.0
2018-Apr-08 02:29N 37°56' E 023°37'0 0.0
2018-Apr-08 01:59N 37°56' E 023°37'0 0.0
2018-Apr-08 01:29N 37°56' E 023°37'0 0.0
2018-Apr-08 00:59N 37°56' E 023°37'0 0.0
2018-Apr-08 00:29N 37°56' E 023°37'0 0.0
2018-Apr-07 23:59N 37°56' E 023°37'0 0.0
2018-Apr-07 23:29N 37°56' E 023°37'0 0.0
2018-Apr-07 22:59N 37°56' E 023°37'0 0.0
2018-Apr-07 22:29N 37°56' E 023°37'0 0.0
2018-Apr-07 21:59N 37°56' E 023°37'0 0.0
2018-Apr-07 21:29N 37°56' E 023°37'0 0.0
2018-Apr-07 20:59N 37°56' E 023°37'0 0.0
2018-Apr-07 20:29N 37°56' E 023°37'0 0.0
2018-Apr-07 19:59N 37°56' E 023°37'0 0.0
2018-Apr-07 19:29N 37°56' E 023°37'0 0.0
2018-Apr-07 18:59N 37°56' E 023°37'0 0.0
2018-Apr-07 18:29N 37°56' E 023°37'0 0.0
2018-Apr-07 17:59N 37°56' E 023°37'0 0.0
2018-Apr-07 17:29N 37°56' E 023°37'0 0.0
2018-Apr-07 16:59N 37°56' E 023°37'0 0.0
2018-Apr-07 16:29N 37°56' E 023°37'0 0.0
2018-Apr-07 15:59N 37°56' E 023°37'0 0.0
2018-Apr-07 15:29N 37°56' E 023°37'0 0.0
2018-Apr-07 14:59N 37°56' E 023°37'0 0.0
2018-Apr-07 14:29N 37°56' E 023°37'0 0.0
2018-Apr-07 13:59N 37°56' E 023°37'0 0.0
2018-Apr-07 13:29N 37°56' E 023°37'0 0.0
2018-Apr-07 12:59N 37°56' E 023°37'0 0.0
2018-Apr-07 12:29N 37°56' E 023°37'0 0.0
2018-Apr-07 11:59N 37°56' E 023°37'0 0.0
2018-Apr-07 11:29N 37°56' E 023°37'0 0.0
2018-Apr-07 10:59N 37°56' E 023°37'0 0.0
2018-Apr-07 10:29N 37°56' E 023°37'0 0.0
2018-Apr-07 09:59N 37°56' E 023°37'0 0.0
2018-Apr-07 09:29N 37°56' E 023°37'0 0.0
2018-Apr-07 08:59N 37°56' E 023°37'0 0.0
2018-Apr-07 08:29N 37°56' E 023°37'0 0.0
2018-Apr-07 07:59N 37°56' E 023°37'0 0.0
2018-Apr-07 07:29N 37°56' E 023°37'0 0.0
2018-Apr-07 06:59N 37°56' E 023°37'0 0.0
2018-Apr-07 06:29N 37°56' E 023°37'0 0.0
2018-Apr-07 05:59N 37°56' E 023°37'0 0.0
2018-Apr-07 05:29N 37°56' E 023°37'0 0.0
2018-Apr-07 04:59N 37°56' E 023°37'0 0.0
2018-Apr-07 04:29N 37°56' E 023°37'0 0.0
2018-Apr-07 03:59N 37°56' E 023°37'0 0.0
2018-Apr-07 03:29N 37°56' E 023°37'0 0.0
2018-Apr-07 02:59N 37°56' E 023°37'0 0.0
2018-Apr-07 02:29N 37°56' E 023°37'0 0.0
2018-Apr-07 01:59N 37°56' E 023°37'0 0.0
2018-Apr-07 01:29N 37°56' E 023°37'0 0.0
2018-Apr-07 00:59N 37°56' E 023°37'0 0.0
2018-Apr-07 00:29N 37°56' E 023°37'0 0.0
2018-Apr-06 23:59N 37°56' E 023°37'0 0.0
2018-Apr-06 23:29N 37°56' E 023°37'0 0.0
2018-Apr-06 22:59N 37°56' E 023°37'0 0.0
2018-Apr-06 22:29N 37°56' E 023°37'0 0.0
2018-Apr-06 21:59N 37°56' E 023°37'0 0.0
2018-Apr-06 21:29N 37°56' E 023°37'0 0.0
2018-Apr-06 20:59N 37°56' E 023°37'0 0.0
2018-Apr-06 20:29N 37°56' E 023°37'0 0.0
2018-Apr-06 19:59N 37°56' E 023°37'0 0.0
2018-Apr-06 19:29N 37°56' E 023°37'0 0.0
2018-Apr-06 18:59N 37°56' E 023°37'0 0.0
2018-Apr-06 18:29N 37°56' E 023°37'0 0.0
2018-Apr-06 17:59N 37°56' E 023°37'0 0.0
2018-Apr-06 17:29N 37°56' E 023°37'0 0.0
2018-Apr-06 16:59N 37°56' E 023°37'0 0.0
2018-Apr-06 16:29N 37°56' E 023°37'0 0.0
2018-Apr-06 15:59N 37°56' E 023°37'0 0.0
2018-Apr-06 15:29N 37°56' E 023°37'0 0.0
2018-Apr-06 14:59N 37°56' E 023°37'0 0.0
2018-Apr-06 14:29N 37°56' E 023°37'0 0.0
2018-Apr-06 13:59N 37°56' E 023°37'0 0.0
2018-Apr-06 13:29N 37°56' E 023°37'0 0.0
2018-Apr-06 12:59N 37°56' E 023°37'0 0.0
2018-Apr-06 12:29N 37°56' E 023°37'0 0.0
2018-Apr-06 11:59N 37°56' E 023°37'0 0.0
2018-Apr-06 11:29N 37°56' E 023°37'0 0.0
2018-Apr-06 10:59N 37°56' E 023°37'0 0.0
2018-Apr-06 10:29N 37°56' E 023°37'0 0.0
2018-Apr-06 09:59N 37°56' E 023°37'0 0.0
2018-Apr-06 09:29N 37°56' E 023°37'0 0.0
2018-Apr-06 08:59N 37°56' E 023°37'0 0.0
2018-Apr-06 08:29N 37°56' E 023°37'0 0.0
2018-Apr-06 07:59N 37°56' E 023°37'0 0.0
2018-Apr-06 07:29N 37°56' E 023°37'0 0.0
2018-Apr-06 06:59N 37°56' E 023°37'0 0.0
2018-Apr-06 06:29N 37°56' E 023°37'0 0.0
2018-Apr-06 05:59N 37°56' E 023°37'0 0.0
2018-Apr-06 05:29N 37°56' E 023°37'0 0.0
2018-Apr-06 04:59N 37°56' E 023°37'0 0.0
2018-Apr-06 04:29N 37°56' E 023°37'0 0.0
2018-Apr-06 03:59N 37°56' E 023°37'0 0.0
2018-Apr-06 03:29N 37°56' E 023°37'0 0.0
2018-Apr-06 02:59N 37°56' E 023°37'0 0.0
2018-Apr-06 02:29N 37°56' E 023°37'0 0.0
2018-Apr-06 01:59N 37°56' E 023°37'0 0.0
2018-Apr-06 01:29N 37°56' E 023°37'0 0.0
2018-Apr-06 00:59N 37°56' E 023°37'0 0.0
2018-Apr-06 00:29N 37°56' E 023°37'0 0.0
2018-Apr-05 23:59N 37°56' E 023°37'0 0.0
2018-Apr-05 23:29N 37°56' E 023°37'0 0.0
2018-Apr-05 22:59N 37°56' E 023°37'0 0.0
2018-Apr-05 22:29N 37°56' E 023°37'0 0.0
2018-Apr-05 21:59N 37°56' E 023°37'0 0.0
2018-Apr-05 21:29N 37°56' E 023°37'0 0.0
2018-Apr-05 20:59N 37°56' E 023°37'0 0.0
2018-Apr-05 20:29N 37°56' E 023°37'0 0.0
2018-Apr-05 19:59N 37°56' E 023°37'0 0.0
2018-Apr-05 19:29N 37°56' E 023°37'0 0.0
2018-Apr-05 18:59N 37°56' E 023°37'0 0.0
2018-Apr-05 18:29N 37°56' E 023°37'0 0.0
2018-Apr-05 17:59N 37°56' E 023°37'0 0.0
2018-Apr-05 17:29N 37°56' E 023°37'0 0.0
2018-Apr-05 16:59N 37°56' E 023°37'0 0.0
2018-Apr-05 16:29N 37°56' E 023°37'0 0.0
2018-Apr-05 15:59N 37°56' E 023°37'0 0.0
2018-Apr-05 15:29N 37°56' E 023°37'0 0.0
2018-Apr-05 14:59N 37°56' E 023°37'0 0.0
2018-Apr-05 14:29N 37°56' E 023°37'0 0.0
2018-Apr-05 13:59N 37°56' E 023°37'0 0.0
2018-Apr-05 13:29N 37°56' E 023°37'0 0.0
2018-Apr-05 12:59N 37°56' E 023°37'0 0.0
2018-Apr-05 12:29N 37°56' E 023°37'0 0.0
2018-Apr-05 11:59N 37°56' E 023°37'0 0.0
2018-Apr-05 11:29N 37°56' E 023°37'0 0.0
2018-Apr-05 10:59N 37°56' E 023°37'0 0.0
2018-Apr-05 10:29N 37°56' E 023°37'0 0.0
2018-Apr-05 09:56N 37°56' E 023°37'0 0.0
2018-Apr-05 09:29N 37°56' E 023°37'0 0.0
2018-Apr-05 08:59N 37°56' E 023°37'0 0.0
2018-Apr-05 08:29N 37°56' E 023°37'0 0.0
2018-Apr-05 07:59N 37°56' E 023°37'0 0.0
2018-Apr-05 07:29N 37°56' E 023°37'0 0.0
2018-Apr-05 06:59N 37°56' E 023°37'0 0.0
2018-Apr-05 06:29N 37°56' E 023°37'0 0.0
2018-Apr-05 05:59N 37°56' E 023°37'0 0.0
2018-Apr-05 05:29N 37°56' E 023°37'0 0.0
2018-Apr-05 04:59N 37°56' E 023°37'0 0.0
2018-Apr-05 04:26N 37°56' E 023°37'0 0.0
2018-Apr-05 03:59N 37°56' E 023°37'0 0.0
2018-Apr-05 03:29N 37°56' E 023°37'0 0.0
2018-Apr-05 02:59N 37°56' E 023°37'0 0.0
2018-Apr-05 02:29N 37°56' E 023°37'0 0.0
2018-Apr-05 01:59N 37°56' E 023°37'0 0.0
2018-Apr-05 01:29N 37°56' E 023°37'0 0.0
2018-Apr-05 00:59N 37°56' E 023°37'0 0.0
2018-Apr-05 00:29N 37°56' E 023°37'0 0.0
2018-Apr-04 23:59N 37°56' E 023°37'0 0.0
2018-Apr-04 23:29N 37°56' E 023°37'0 0.0
2018-Apr-04 22:59N 37°56' E 023°37'0 0.0
2018-Apr-04 22:29N 37°56' E 023°37'0 0.0
2018-Apr-04 21:59N 37°56' E 023°37'0 0.0
2018-Apr-04 21:29N 37°56' E 023°37'0 0.0
2018-Apr-04 20:59N 37°56' E 023°37'0 0.0
2018-Apr-04 20:29N 37°56' E 023°37'0 0.0
2018-Apr-04 19:59N 37°56' E 023°37'0 0.0
2018-Apr-04 19:29N 37°56' E 023°37'0 0.0
2018-Apr-04 18:59N 37°56' E 023°37'0 0.0
2018-Apr-04 18:29N 37°56' E 023°37'0 0.0
2018-Apr-04 17:59N 37°56' E 023°37'0 0.0
2018-Apr-04 17:29N 37°56' E 023°37'0 0.0
2018-Apr-04 16:59N 37°56' E 023°37'0 0.0
2018-Apr-04 16:29N 37°56' E 023°37'0 0.0
2018-Apr-04 15:59N 37°56' E 023°37'0 0.0
2018-Apr-04 15:29N 37°56' E 023°37'0 0.0
2018-Apr-04 14:59N 37°56' E 023°37'0 0.0
2018-Apr-04 14:29N 37°56' E 023°37'0 0.0
2018-Apr-04 13:59N 37°56' E 023°37'0 0.0
2018-Apr-04 13:29N 37°56' E 023°37'0 0.0
2018-Apr-04 12:59N 37°56' E 023°37'0 0.0
2018-Apr-04 12:29N 37°56' E 023°37'0 0.0
2018-Apr-04 11:59N 37°56' E 023°37'0 0.0
2018-Apr-04 11:29N 37°56' E 023°37'0 0.0
2018-Apr-04 10:59N 37°56' E 023°37'0 0.0
2018-Apr-04 10:29N 37°56' E 023°37'0 0.0
2018-Apr-04 09:59N 37°56' E 023°37'0 0.0
2018-Apr-04 09:29N 37°56' E 023°37'0 0.0
2018-Apr-04 08:59N 37°56' E 023°37'0 0.0
2018-Apr-04 08:29N 37°56' E 023°37'0 0.0
2018-Apr-04 07:59N 37°56' E 023°37'0 0.0
2018-Apr-04 07:29N 37°56' E 023°37'0 0.0
2018-Apr-04 06:59N 37°56' E 023°37'0 0.0
2018-Apr-04 06:29N 37°56' E 023°37'0 0.0
2018-Apr-04 06:00N 37°56' E 023°37'0 0.9
2018-Apr-04 05:30N 37°56' E 023°37'2 3.6
2018-Apr-04 05:00N 37°54' E 023°37'4 7.1
2018-Apr-04 04:30N 37°51' E 023°39'611.7
2018-Apr-04 04:00N 37°46' E 023°42'611.3
2018-Apr-04 03:30N 37°41' E 023°45'611.6
2018-Apr-04 03:00N 37°35' E 023°46'713.6
2018-Apr-04 02:30N 37°28' E 023°46'917.8
2018-Apr-04 02:00N 37°19' E 023°46'917.7
2018-Apr-04 01:30N 37°10' E 023°45'816.7
2018-Apr-04 01:00N 37°02' E 023°46'917.8
2018-Apr-04 00:30N 36°53' E 023°46'917.8
2018-Apr-04 00:00N 36°44' E 023°45'917.7
2018-Apr-03 23:30N 36°36' E 023°42'917.7
2018-Apr-03 23:00N 36°27' E 023°41'3417.9
2018-Apr-03 21:08N 35°54' E 023°32'217.9
2018-Apr-03 21:00N 35°52' E 023°31'  
2018-Mar-30 21:18N 36°00' W 005°10'619.8
2018-Mar-30 21:00N 35°59' W 005°17'1020.0
2018-Mar-30 20:30N 35°56' W 005°29'  

Dump ship's entire track history